Time;durP1;ratioP1;P1;durP2;ratioP2;P2;SDS_P1;SDS_P2;PMS_P1;PMS_P2;Temp;Humidity;BMP_temperature;BMP_pressure;BME280_temperature;BME280_humidity;BME280_pressure;Samples;Min_cycle;Max_cycle;Signal;HPM_P1;HPM_P2
2024/01/28 00:04:25;;;;;;;96.03;53.50;;;;;;;;;;10640713;27;20407;-82
2024/01/28 00:09:29;;;;;;;95.05;52.65;;;;;;;;;;10641355;27;20401;-83
2024/01/28 00:14:31;;;;;;;94.13;52.00;;;;;;;;;;10645796;27;20775;-82
2024/01/28 00:19:33;;;;;;;92.10;50.15;;;;;;;;;;10642119;27;20448;-82
2024/01/28 00:24:37;;;;;;;87.93;49.03;;;;;;;;;;10644707;27;20431;-83
2024/01/28 00:29:39;;;;;;;76.35;45.28;;;;;;;;;;10636837;27;20851;-84
2024/01/28 00:34:42;;;;;;;77.80;44.33;;;;;;;;;;10646248;27;20553;-83
2024/01/28 00:39:46;;;;;;;80.93;44.85;;;;;;;;;;10640865;27;20945;-83
2024/01/28 00:44:48;;;;;;;76.45;43.92;;;;;;;;;;10648689;27;20428;-83
2024/01/28 00:49:50;;;;;;;79.90;44.33;;;;;;;;;;10639447;27;20409;-83
2024/01/28 00:54:54;;;;;;;80.88;44.80;;;;;;;;;;10637769;27;20497;-83
2024/01/28 00:59:56;;;;;;;77.60;44.80;;;;;;;;;;10632499;27;20452;-83
2024/01/28 01:04:59;;;;;;;78.35;45.47;;;;;;;;;;10634064;27;20428;-84
2024/01/28 01:10:04;;;;;;;77.10;43.10;;;;;;;;;;10633706;27;20397;-83
2024/01/28 01:15:07;;;;;;;73.83;42.70;;;;;;;;;;10641383;27;20476;-83
2024/01/28 01:20:10;;;;;;;74.47;43.13;;;;;;;;;;10633799;27;20405;-83
2024/01/28 01:25:14;;;;;;;77.72;43.45;;;;;;;;;;10639826;27;20881;-82
2024/01/28 01:30:17;;;;;;;77.07;43.80;;;;;;;;;;10636647;27;20400;-83
2024/01/28 01:35:20;;;;;;;76.03;42.95;;;;;;;;;;10617729;22;20454;-82
2024/01/28 01:40:23;;;;;;;76.32;41.65;;;;;;;;;;10599969;27;20417;-83
2024/01/28 01:45:26;;;;;;;74.73;41.73;;;;;;;;;;10610097;27;20408;-83
2024/01/28 01:50:28;;;;;;;74.20;42.20;;;;;;;;;;10597097;27;20432;-83
2024/01/28 01:55:34;;;;;;;77.50;43.07;;;;;;;;;;10599450;27;20450;-83
2024/01/28 02:00:38;;;;;;;76.80;43.03;;;;;;;;;;10597443;27;20438;-83
2024/01/28 02:05:40;;;;;;;67.82;38.33;;;;;;;;;;10604300;27;20450;-83
2024/01/28 02:10:44;;;;;;;67.13;38.00;;;;;;;;;;10605112;27;20882;-83
2024/01/28 02:15:47;;;;;;;64.40;38.70;;;;;;;;;;10605746;27;20481;-83
2024/01/28 02:20:49;;;;;;;66.30;39.28;;;;;;;;;;10604279;27;20757;-83
2024/01/28 02:25:53;;;;;;;60.87;36.03;;;;;;;;;;10603254;27;20490;-82
2024/01/28 02:30:55;;;;;;;61.13;36.17;;;;;;;;;;10600527;27;20409;-82
2024/01/28 02:35:58;;;;;;;60.72;35.88;;;;;;;;;;10602625;27;20486;-82
2024/01/28 02:41:01;;;;;;;63.63;36.43;;;;;;;;;;10602248;27;20408;-83
2024/01/28 02:46:05;;;;;;;63.40;36.20;;;;;;;;;;10600857;28;20759;-83
2024/01/28 02:51:07;;;;;;;59.53;33.80;;;;;;;;;;10600641;28;20394;-83
2024/01/28 02:56:11;;;;;;;61.03;33.88;;;;;;;;;;10602900;27;20484;-83
2024/01/28 03:01:13;;;;;;;57.67;34.50;;;;;;;;;;10606898;27;20485;-82
2024/01/28 03:06:16;;;;;;;60.05;34.78;;;;;;;;;;10609394;27;20389;-83
2024/01/28 03:11:20;;;;;;;65.13;38.23;;;;;;;;;;10610051;27;20429;-82
2024/01/28 03:16:22;;;;;;;85.90;47.60;;;;;;;;;;10613806;27;20516;-83
2024/01/28 03:21:24;;;;;;;96.75;49.95;;;;;;;;;;10610145;27;20879;-83
2024/01/28 03:26:28;;;;;;;97.70;53.23;;;;;;;;;;10606878;27;20505;-82
2024/01/28 03:31:31;;;;;;;96.40;52.25;;;;;;;;;;10611782;27;20442;-83
2024/01/28 03:36:33;;;;;;;95.28;52.08;;;;;;;;;;10606337;27;20422;-82
2024/01/28 03:41:38;;;;;;;96.90;53.00;;;;;;;;;;10606388;27;20397;-82
2024/01/28 03:46:40;;;;;;;96.87;51.53;;;;;;;;;;10605127;27;20436;-82
2024/01/28 03:51:43;;;;;;;95.38;49.97;;;;;;;;;;10600985;27;20399;-83
2024/01/28 03:56:46;;;;;;;92.47;50.87;;;;;;;;;;10595819;27;20421;-82
2024/01/28 04:01:49;;;;;;;97.70;52.20;;;;;;;;;;10600189;27;20401;-82
2024/01/28 04:06:51;;;;;;;93.43;51.38;;;;;;;;;;10608609;27;20743;-83
2024/01/28 04:11:55;;;;;;;94.87;52.90;;;;;;;;;;10607860;27;20426;-83
2024/01/28 04:16:57;;;;;;;91.18;51.17;;;;;;;;;;10608101;27;20415;-82
2024/01/28 04:21:59;;;;;;;92.90;50.22;;;;;;;;;;10607405;27;20403;-82
2024/01/28 04:27:04;;;;;;;90.90;48.70;;;;;;;;;;10613970;27;20910;-82
2024/01/28 04:32:07;;;;;;;87.97;47.67;;;;;;;;;;10605901;27;20412;-82
2024/01/28 04:37:10;;;;;;;90.07;49.50;;;;;;;;;;10605802;27;20448;-82
2024/01/28 04:42:13;;;;;;;90.63;47.38;;;;;;;;;;10605695;27;20407;-83
2024/01/28 04:47:16;;;;;;;77.35;43.80;;;;;;;;;;10598339;27;20401;-82
2024/01/28 04:52:18;;;;;;;78.38;43.03;;;;;;;;;;10604975;27;20971;-82
2024/01/28 04:57:22;;;;;;;76.63;42.67;;;;;;;;;;10606064;27;21309;-82
2024/01/28 05:02:24;;;;;;;75.60;43.00;;;;;;;;;;10605083;27;20411;-82
2024/01/28 05:07:26;;;;;;;77.13;43.53;;;;;;;;;;10603103;27;20401;-82
2024/01/28 05:12:30;;;;;;;76.80;44.33;;;;;;;;;;10607114;27;20448;-82
2024/01/28 05:17:32;;;;;;;79.00;43.28;;;;;;;;;;10605285;27;20413;-82
2024/01/28 05:22:35;;;;;;;75.87;41.43;;;;;;;;;;10604119;27;20428;-82
2024/01/28 05:27:38;;;;;;;72.57;41.78;;;;;;;;;;10605670;27;20442;-82
2024/01/28 05:32:41;;;;;;;73.65;42.25;;;;;;;;;;10604561;27;20397;-82
2024/01/28 05:37:43;;;;;;;73.47;41.17;;;;;;;;;;10604655;27;20424;-83
2024/01/28 05:42:47;;;;;;;82.93;44.60;;;;;;;;;;10606441;27;20486;-81
2024/01/28 05:47:49;;;;;;;83.95;48.05;;;;;;;;;;10598969;27;20402;-82
2024/01/28 05:52:52;;;;;;;84.13;46.67;;;;;;;;;;10601824;27;20487;-83
2024/01/28 05:57:55;;;;;;;79.30;45.45;;;;;;;;;;10605463;27;20990;-82
2024/01/28 06:02:58;;;;;;;82.30;46.85;;;;;;;;;;10603135;27;20453;-82
2024/01/28 06:08:00;;;;;;;79.65;44.40;;;;;;;;;;10603578;27;20459;-82
2024/01/28 06:13:04;;;;;;;83.97;46.33;;;;;;;;;;10606697;27;20413;-82
2024/01/28 06:18:06;;;;;;;79.78;43.28;;;;;;;;;;10602029;27;20420;-81
2024/01/28 06:23:09;;;;;;;72.20;39.38;;;;;;;;;;10604063;27;20398;-83
2024/01/28 06:28:13;;;;;;;68.43;38.20;;;;;;;;;;10601763;27;20428;-82
2024/01/28 06:33:17;;;;;;;83.78;45.08;;;;;;;;;;10602294;27;20995;-83
2024/01/28 06:38:25;;;;;;;87.07;47.25;;;;;;;;;;10599299;27;20506;-82
2024/01/28 06:43:29;;;;;;;79.18;45.78;;;;;;;;;;10601145;27;21152;-82
2024/01/28 06:48:32;;;;;;;78.40;45.15;;;;;;;;;;10599800;28;20400;-82
2024/01/28 06:53:34;;;;;;;83.13;46.08;;;;;;;;;;10602302;27;20466;-82
2024/01/28 06:58:38;;;;;;;85.55;47.72;;;;;;;;;;10606560;28;20493;-83
2024/01/28 07:03:40;;;;;;;87.72;48.35;;;;;;;;;;10600138;27;20400;-82
2024/01/28 07:08:43;;;;;;;87.53;48.45;;;;;;;;;;10602969;28;20434;-82
2024/01/28 07:13:47;;;;;;;83.63;45.17;;;;;;;;;;10602778;28;20479;-82
2024/01/28 07:18:50;;;;;;;78.30;42.88;;;;;;;;;;10600254;28;20418;-82
2024/01/28 07:23:52;;;;;;;71.25;40.10;;;;;;;;;;10600166;27;20459;-82
2024/01/28 07:28:56;;;;;;;78.15;42.60;;;;;;;;;;10601752;27;20771;-81
2024/01/28 07:33:58;;;;;;;71.97;40.97;;;;;;;;;;10601836;27;20396;-81
2024/01/28 07:39:01;;;;;;;71.78;39.00;;;;;;;;;;10597358;27;20469;-82
2024/01/28 07:44:05;;;;;;;64.60;35.27;;;;;;;;;;10601201;27;20493;-82
2024/01/28 07:49:07;;;;;;;62.88;33.95;;;;;;;;;;10605386;27;20401;-82
2024/01/28 07:54:10;;;;;;;59.40;35.10;;;;;;;;;;10609883;27;20401;-81
2024/01/28 07:59:14;;;;;;;60.97;34.72;;;;;;;;;;10614767;27;20462;-82
2024/01/28 08:04:16;;;;;;;60.75;33.90;;;;;;;;;;10593789;27;20487;-82
2024/01/28 08:09:18;;;;;;;59.20;34.50;;;;;;;;;;10599974;27;20457;-80
2024/01/28 08:14:27;;;;;;;58.53;33.92;;;;;;;;;;10606639;27;20408;-79
2024/01/28 08:19:30;;;;;;;62.95;36.17;;;;;;;;;;10598678;27;20444;-80
2024/01/28 08:24:33;;;;;;;55.53;34.00;;;;;;;;;;10605424;27;20944;-79
2024/01/28 08:29:37;;;;;;;62.13;34.83;;;;;;;;;;10600622;27;20971;-80
2024/01/28 08:34:39;;;;;;;64.13;36.20;;;;;;;;;;10602538;27;22067;-80
2024/01/28 08:39:41;;;;;;;63.17;35.50;;;;;;;;;;10596848;27;20903;-80
2024/01/28 08:44:46;;;;;;;62.33;34.72;;;;;;;;;;10599413;27;20430;-80
2024/01/28 08:49:50;;;;;;;58.23;34.20;;;;;;;;;;10599647;27;20463;-81
2024/01/28 08:54:52;;;;;;;61.83;36.25;;;;;;;;;;10592878;27;20434;-81
2024/01/28 08:59:56;;;;;;;53.92;31.45;;;;;;;;;;10600305;27;20572;-81
2024/01/28 09:04:58;;;;;;;52.45;30.30;;;;;;;;;;10602097;27;20425;-81
2024/01/28 09:10:01;;;;;;;47.85;27.55;;;;;;;;;;10597551;27;20503;-80
2024/01/28 09:15:06;;;;;;;48.60;28.70;;;;;;;;;;10609714;27;20736;-81
2024/01/28 09:20:10;;;;;;;48.15;30.13;;;;;;;;;;10604529;27;20482;-81
2024/01/28 09:25:12;;;;;;;47.60;28.65;;;;;;;;;;10605438;27;20424;-81
2024/01/28 09:30:16;;;;;;;47.80;28.52;;;;;;;;;;10597392;27;20437;-81
2024/01/28 09:35:18;;;;;;;49.35;30.35;;;;;;;;;;10605068;27;20432;-81
2024/01/28 09:40:20;;;;;;;57.15;33.13;;;;;;;;;;10610965;27;20401;-80
2024/01/28 09:45:26;;;;;;;49.65;30.73;;;;;;;;;;10600902;27;20397;-79
2024/01/28 09:50:28;;;;;;;50.13;28.63;;;;;;;;;;10603507;27;20397;-80
2024/01/28 09:55:31;;;;;;;42.67;26.40;;;;;;;;;;10593970;27;20462;-80
2024/01/28 10:00:35;;;;;;;45.90;27.55;;;;;;;;;;10611688;27;20962;-79
2024/01/28 10:05:37;;;;;;;48.03;27.70;;;;;;;;;;10602421;27;20419;-80
2024/01/28 10:10:40;;;;;;;48.90;30.20;;;;;;;;;;10600570;27;20796;-78
2024/01/28 10:15:54;;;;;;;37.40;23.30;;;;;;;;;;10594798;27;20438;-82
2024/01/28 10:20:56;;;;;;;43.90;26.08;;;;;;;;;;10598143;27;20555;-80
2024/01/28 10:26:00;;;;;;;42.55;26.20;;;;;;;;;;10587441;27;20455;-79
2024/01/28 10:31:05;;;;;;;39.00;23.55;;;;;;;;;;10599387;27;20420;-81
2024/01/28 10:36:10;;;;;;;39.97;23.88;;;;;;;;;;10591932;27;20813;-81
2024/01/28 10:41:17;;;;;;;38.00;23.60;;;;;;;;;;10588774;27;20537;-81
2024/01/28 10:46:30;;;;;;;40.67;24.13;;;;;;;;;;10589227;27;20484;-81
2024/01/28 10:51:35;;;;;;;36.97;24.40;;;;;;;;;;10585062;27;20521;-81
2024/01/28 10:56:38;;;;;;;39.23;24.17;;;;;;;;;;10586271;27;20478;-81
2024/01/28 11:01:43;;;;;;;46.10;26.40;;;;;;;;;;10593100;28;20562;-81
2024/01/28 11:06:47;;;;;;;37.47;23.70;;;;;;;;;;10594293;27;20447;-80
2024/01/28 11:11:49;;;;;;;38.90;23.60;;;;;;;;;;10593713;27;20495;-83
2024/01/28 11:16:53;;;;;;;36.47;22.75;;;;;;;;;;10590456;27;20983;-81
2024/01/28 11:21:58;;;;;;;36.43;22.30;;;;;;;;;;10586408;27;20459;-82
2024/01/28 11:27:00;;;;;;;34.70;22.53;;;;;;;;;;10590968;27;20433;-80
2024/01/28 11:32:07;;;;;;;35.45;21.65;;;;;;;;;;10598047;27;20480;-83
2024/01/28 11:37:13;;;;;;;32.00;19.80;;;;;;;;;;10600528;27;20487;-82
2024/01/28 11:42:16;;;;;;;30.73;20.37;;;;;;;;;;10595527;27;21217;-82
2024/01/28 11:47:21;;;;;;;33.55;20.27;;;;;;;;;;10598711;27;20530;-82
2024/01/28 11:52:24;;;;;;;32.43;19.80;;;;;;;;;;10601633;27;20469;-82
2024/01/28 11:57:26;;;;;;;33.63;19.97;;;;;;;;;;10603992;27;20555;-82
2024/01/28 12:02:31;;;;;;;43.65;29.63;;;;;;;;;;10605173;27;20436;-83
2024/01/28 12:07:35;;;;;;;29.60;18.83;;;;;;;;;;10612012;27;20459;-81
2024/01/28 12:12:37;;;;;;;33.93;22.33;;;;;;;;;;10607874;27;20558;-82
2024/01/28 12:17:43;;;;;;;32.33;20.33;;;;;;;;;;10600420;27;20454;-82
2024/01/28 12:22:46;;;;;;;34.57;20.07;;;;;;;;;;10600712;27;20397;-82
2024/01/28 12:27:50;;;;;;;31.00;20.07;;;;;;;;;;10604510;27;20445;-84
2024/01/28 12:32:53;;;;;;;29.57;19.57;;;;;;;;;;10435980;28;20427;-82
2024/01/28 12:37:56;;;;;;;29.05;19.23;;;;;;;;;;10460864;28;20525;-81
2024/01/28 12:42:58;;;;;;;32.85;19.63;;;;;;;;;;10464427;28;20975;-82
2024/01/28 12:48:02;;;;;;;32.10;21.37;;;;;;;;;;10459320;28;20447;-81
2024/01/28 12:53:05;;;;;;;31.95;19.92;;;;;;;;;;10459364;28;20451;-82
2024/01/28 12:58:07;;;;;;;31.70;19.75;;;;;;;;;;10457710;28;20455;-81
2024/01/28 13:03:12;;;;;;;33.40;21.02;;;;;;;;;;10454925;28;20996;-81
2024/01/28 13:08:15;;;;;;;36.33;21.27;;;;;;;;;;10459676;28;20446;-81
2024/01/28 13:13:19;;;;;;;34.28;20.75;;;;;;;;;;10461453;28;20511;-81
2024/01/28 13:18:22;;;;;;;30.47;20.07;;;;;;;;;;10456001;28;20451;-81
2024/01/28 13:23:25;;;;;;;27.45;18.48;;;;;;;;;;10451354;28;20459;-80
2024/01/28 13:28:27;;;;;;;29.35;18.08;;;;;;;;;;10466650;28;20504;-81
2024/01/28 13:33:31;;;;;;;23.77;15.98;;;;;;;;;;10452073;28;20447;-80
2024/01/28 13:38:33;;;;;;;20.90;13.87;;;;;;;;;;10449407;28;20903;-79
2024/01/28 13:43:37;;;;;;;22.97;13.87;;;;;;;;;;10455837;28;20458;-79
2024/01/28 13:48:41;;;;;;;23.00;14.50;;;;;;;;;;10460813;28;20992;-84
2024/01/28 13:53:44;;;;;;;22.05;13.43;;;;;;;;;;10472246;28;20535;-79
2024/01/28 13:58:46;;;;;;;22.77;14.13;;;;;;;;;;10467862;28;20506;-82
2024/01/28 14:03:50;;;;;;;22.60;15.52;;;;;;;;;;10485040;28;20527;-80
2024/01/28 14:08:53;;;;;;;20.52;13.93;;;;;;;;;;10484798;28;20472;-81
2024/01/28 14:13:55;;;;;;;20.45;13.20;;;;;;;;;;10475192;28;20515;-82
2024/01/28 14:18:59;;;;;;;21.67;14.37;;;;;;;;;;10463809;28;20440;-79
2024/01/28 14:24:01;;;;;;;20.73;14.23;;;;;;;;;;10465259;28;20471;-81
2024/01/28 14:29:04;;;;;;;20.77;14.00;;;;;;;;;;10472113;28;21083;-80
2024/01/28 14:34:08;;;;;;;21.27;14.30;;;;;;;;;;10479283;28;20935;-81
2024/01/28 14:39:11;;;;;;;18.10;13.15;;;;;;;;;;10474186;28;20552;-81
2024/01/28 14:44:13;;;;;;;19.38;12.98;;;;;;;;;;10468597;28;20433;-81
2024/01/28 14:49:18;;;;;;;20.27;14.20;;;;;;;;;;10465135;28;20427;-82
2024/01/28 14:54:21;;;;;;;21.92;15.02;;;;;;;;;;10460325;28;20519;-83
2024/01/28 14:59:23;;;;;;;22.92;14.63;;;;;;;;;;10468022;28;20449;-83
2024/01/28 15:04:27;;;;;;;20.63;14.68;;;;;;;;;;10479842;28;20426;-83
2024/01/28 15:09:30;;;;;;;23.87;16.07;;;;;;;;;;10480176;28;20475;-83
2024/01/28 15:14:33;;;;;;;25.83;16.58;;;;;;;;;;10482819;28;20438;-83
2024/01/28 15:19:37;;;;;;;27.73;16.92;;;;;;;;;;10483795;28;20446;-84
2024/01/28 15:24:39;;;;;;;28.95;18.20;;;;;;;;;;10510263;23;20493;-83
2024/01/28 15:29:45;;;;;;;32.40;18.38;;;;;;;;;;10535866;28;20478;-83
2024/01/28 15:34:51;;;;;;;32.45;18.67;;;;;;;;;;10532688;28;20457;-82
2024/01/28 15:39:54;;;;;;;30.23;17.95;;;;;;;;;;10530995;28;20428;-83
2024/01/28 15:44:57;;;;;;;25.90;16.33;;;;;;;;;;10530340;28;20462;-83
2024/01/28 15:50:01;;;;;;;29.13;17.10;;;;;;;;;;10537137;28;20509;-82
2024/01/28 15:55:03;;;;;;;30.95;18.25;;;;;;;;;;10519566;28;20802;-83
2024/01/28 16:00:07;;;;;;;32.55;18.65;;;;;;;;;;10526732;28;20443;-82
2024/01/28 16:05:11;;;;;;;32.42;19.85;;;;;;;;;;10531456;28;20400;-81
2024/01/28 16:10:13;;;;;;;30.45;17.92;;;;;;;;;;10527162;28;20918;-83
2024/01/28 16:15:16;;;;;;;36.40;21.48;;;;;;;;;;10524533;28;20429;-83
2024/01/28 16:20:20;;;;;;;35.50;20.00;;;;;;;;;;10526808;28;20931;-83
2024/01/28 16:25:22;;;;;;;37.35;21.25;;;;;;;;;;10526290;28;20434;-82
2024/01/28 16:30:25;;;;;;;33.70;20.27;;;;;;;;;;10522845;28;21133;-83
2024/01/28 16:35:29;;;;;;;37.05;20.25;;;;;;;;;;10520728;28;20408;-83
2024/01/28 16:40:31;;;;;;;37.90;20.37;;;;;;;;;;10524897;28;20478;-83
2024/01/28 16:45:34;;;;;;;33.67;19.95;;;;;;;;;;10506465;28;20468;-83
2024/01/28 16:50:37;;;;;;;36.38;21.23;;;;;;;;;;10528197;28;20773;-83
2024/01/28 16:55:40;;;;;;;37.42;21.58;;;;;;;;;;10511297;28;20489;-82
2024/01/28 17:00:42;;;;;;;37.40;22.15;;;;;;;;;;10505829;28;20456;-82
2024/01/28 17:05:46;;;;;;;35.43;20.87;;;;;;;;;;10520360;28;20418;-83
2024/01/28 17:10:48;;;;;;;48.70;24.35;;;;;;;;;;10515110;28;21229;-83
2024/01/28 17:15:51;;;;;;;41.47;23.87;;;;;;;;;;10525592;28;20409;-83
2024/01/28 17:20:54;;;;;;;44.42;25.58;;;;;;;;;;10509206;28;20505;-82
2024/01/28 17:25:57;;;;;;;43.23;25.30;;;;;;;;;;10527632;28;20394;-82
2024/01/28 17:30:59;;;;;;;45.85;26.55;;;;;;;;;;10524173;28;20395;-82
2024/01/28 17:36:04;;;;;;;45.60;26.40;;;;;;;;;;10518045;28;20392;-83
2024/01/28 17:41:07;;;;;;;47.25;26.40;;;;;;;;;;10515562;28;20458;-83
2024/01/28 17:46:10;;;;;;;46.33;26.60;;;;;;;;;;10525546;28;20450;-82
2024/01/28 17:51:14;;;;;;;49.93;27.83;;;;;;;;;;10522315;28;20478;-83
2024/01/28 17:56:16;;;;;;;50.37;27.90;;;;;;;;;;10518353;28;20531;-83
2024/01/28 18:01:19;;;;;;;54.95;30.13;;;;;;;;;;10513481;28;20480;-83
2024/01/28 18:06:23;;;;;;;56.88;31.70;;;;;;;;;;10508693;28;20463;-84
2024/01/28 18:11:25;;;;;;;54.47;29.20;;;;;;;;;;10511709;28;20426;-81
2024/01/28 18:16:28;;;;;;;60.55;31.40;;;;;;;;;;10516689;28;20408;-83
2024/01/28 18:21:32;;;;;;;56.47;32.33;;;;;;;;;;10520860;28;20482;-83
2024/01/28 18:26:35;;;;;;;57.75;31.80;;;;;;;;;;10518048;28;20447;-84
2024/01/28 18:31:40;;;;;;;53.42;30.88;;;;;;;;;;10521782;28;20431;-83
2024/01/28 18:36:43;;;;;;;54.47;31.20;;;;;;;;;;10511841;28;20889;-82
2024/01/28 18:41:46;;;;;;;55.75;31.50;;;;;;;;;;10495381;28;20435;-82
2024/01/28 18:46:49;;;;;;;55.97;32.10;;;;;;;;;;10551586;28;20456;-82
2024/01/28 18:51:53;;;;;;;63.77;35.17;;;;;;;;;;10537617;28;20558;-82
2024/01/28 18:56:55;;;;;;;57.33;33.30;;;;;;;;;;10537517;28;22454;-80
2024/01/28 19:01:58;;;;;;;60.78;33.17;;;;;;;;;;10534761;28;20452;-81
2024/01/28 19:07:02;;;;;;;59.60;35.00;;;;;;;;;;10524439;28;20520;-80
2024/01/28 19:12:05;;;;;;;73.22;39.20;;;;;;;;;;10531142;28;20542;-81
2024/01/28 19:17:07;;;;;;;74.95;41.63;;;;;;;;;;10530660;28;20428;-80
2024/01/28 19:22:11;;;;;;;72.90;41.17;;;;;;;;;;10524329;28;20447;-80
2024/01/28 19:27:14;;;;;;;97.90;50.15;;;;;;;;;;10530716;28;20868;-79
2024/01/28 19:32:17;;;;;;;79.28;44.38;;;;;;;;;;10533072;28;20510;-80
2024/01/28 19:37:21;;;;;;;98.63;50.28;;;;;;;;;;10534220;28;20477;-80
2024/01/28 19:42:24;;;;;;;84.97;43.83;;;;;;;;;;10552727;27;20442;-82
2024/01/28 19:47:27;;;;;;;75.22;41.10;;;;;;;;;;10557141;27;20450;-81
2024/01/28 19:52:31;;;;;;;63.77;34.00;;;;;;;;;;10552147;27;20438;-81
2024/01/28 19:57:33;;;;;;;73.13;39.25;;;;;;;;;;10552443;28;20474;-81
2024/01/28 20:02:37;;;;;;;80.90;42.67;;;;;;;;;;10545320;27;21064;-80
2024/01/28 20:07:41;;;;;;;73.13;38.83;;;;;;;;;;10554570;27;20989;-80
2024/01/28 20:12:43;;;;;;;69.78;38.30;;;;;;;;;;10558899;27;20475;-80
2024/01/28 20:17:45;;;;;;;65.88;38.10;;;;;;;;;;10547870;28;20754;-80
2024/01/28 20:22:50;;;;;;;66.70;36.67;;;;;;;;;;10555151;28;20511;-80
2024/01/28 20:27:52;;;;;;;64.63;36.75;;;;;;;;;;10557799;27;20505;-80
2024/01/28 20:32:55;;;;;;;66.60;37.63;;;;;;;;;;10547040;27;20444;-79
2024/01/28 20:37:59;;;;;;;66.55;35.90;;;;;;;;;;10561397;27;20454;-79
2024/01/28 20:43:01;;;;;;;68.80;38.30;;;;;;;;;;10555431;27;20497;-79
2024/01/28 20:48:04;;;;;;;60.05;33.88;;;;;;;;;;10530983;28;20495;-80
2024/01/28 20:53:11;;;;;;;49.85;29.88;;;;;;;;;;10562790;27;20438;-80
2024/01/28 20:58:13;;;;;;;50.22;30.13;;;;;;;;;;10564084;27;20519;-80
2024/01/28 21:03:16;;;;;;;46.95;29.17;;;;;;;;;;10560056;27;20531;-79
2024/01/28 21:08:21;;;;;;;52.03;29.10;;;;;;;;;;10558225;28;20442;-79
2024/01/28 21:13:23;;;;;;;43.57;25.93;;;;;;;;;;10563742;27;20438;-78
2024/01/28 21:18:26;;;;;;;41.50;24.83;;;;;;;;;;10558254;28;20483;-80
2024/01/28 21:23:29;;;;;;;40.83;23.97;;;;;;;;;;10557750;27;20935;-80
2024/01/28 21:28:32;;;;;;;38.77;23.67;;;;;;;;;;10560054;27;20442;-80
2024/01/28 21:33:34;;;;;;;43.88;24.42;;;;;;;;;;10557393;28;20450;-80
2024/01/28 21:38:38;;;;;;;39.05;22.23;;;;;;;;;;10550427;27;20916;-80
2024/01/28 21:43:40;;;;;;;35.05;20.35;;;;;;;;;;10545714;27;20445;-80
2024/01/28 21:48:43;;;;;;;33.27;20.77;;;;;;;;;;10554059;27;20500;-80
2024/01/28 21:53:46;;;;;;;33.50;19.15;;;;;;;;;;10549575;27;20442;-80
2024/01/28 21:58:49;;;;;;;39.05;20.48;;;;;;;;;;10547417;27;20524;-80
2024/01/28 22:03:51;;;;;;;35.23;20.63;;;;;;;;;;10545079;27;21001;-79
2024/01/28 22:08:55;;;;;;;34.70;19.55;;;;;;;;;;10539429;28;20416;-79
2024/01/28 22:13:57;;;;;;;34.25;19.98;;;;;;;;;;10547201;28;20430;-81
2024/01/28 22:19:00;;;;;;;37.75;20.98;;;;;;;;;;10549831;27;20454;-81
2024/01/28 22:24:06;;;;;;;47.30;24.43;;;;;;;;;;10553288;28;20928;-81
2024/01/28 22:29:09;;;;;;;45.73;23.73;;;;;;;;;;10551268;28;20425;-81
2024/01/28 22:34:11;;;;;;;46.40;23.83;;;;;;;;;;10547117;27;20440;-80
2024/01/28 22:39:16;;;;;;;51.97;24.27;;;;;;;;;;10549700;28;21590;-81
2024/01/28 22:44:19;;;;;;;40.25;22.13;;;;;;;;;;10555713;28;20446;-81
2024/01/28 22:49:21;;;;;;;43.08;22.17;;;;;;;;;;10552074;28;20934;-79
2024/01/28 22:54:25;;;;;;;42.55;22.00;;;;;;;;;;10558976;28;20426;-81
2024/01/28 22:59:28;;;;;;;46.37;23.20;;;;;;;;;;10561513;28;20465;-81
2024/01/28 23:04:30;;;;;;;43.55;23.08;;;;;;;;;;10556443;28;20451;-81
2024/01/28 23:09:34;;;;;;;42.87;23.30;;;;;;;;;;10553842;28;20872;-80
2024/01/28 23:14:36;;;;;;;45.13;22.63;;;;;;;;;;10562907;28;20466;-81
2024/01/28 23:19:38;;;;;;;40.03;22.38;;;;;;;;;;10562733;27;20448;-81
2024/01/28 23:24:42;;;;;;;42.65;21.45;;;;;;;;;;10570373;27;20513;-81
2024/01/28 23:29:45;;;;;;;36.67;20.85;;;;;;;;;;10564132;27;20407;-80
2024/01/28 23:34:47;;;;;;;37.85;21.48;;;;;;;;;;10560579;27;20404;-81
2024/01/28 23:39:51;;;;;;;38.92;22.45;;;;;;;;;;10564499;27;20397;-81
2024/01/28 23:44:53;;;;;;;38.25;21.25;;;;;;;;;;10559038;27;20474;-81
2024/01/28 23:49:57;;;;;;;37.03;21.90;;;;;;;;;;10561337;27;20485;-81
2024/01/28 23:55:01;;;;;;;37.53;21.23;;;;;;;;;;10550976;27;20412;-81
